Time;durP1;ratioP1;P1;durP2;ratioP2;P2;SDS_P1;SDS_P2;PMS_P1;PMS_P2;Temp;Humidity;BMP_temperature;BMP_pressure;BME280_temperature;BME280_humidity;BME280_pressure;Samples;Min_cycle;Max_cycle;Signal;HPM_P1;HPM_P2
2021/01/09 00:00:23;;;;;;;6.60;3.28;;;1.80;93.20;;;;;;2088613;28;20464;-83
2021/01/09 00:01:23;;;;;;;6.40;3.10;;;1.70;93.10;;;;;;2088114;28;20048;-84
2021/01/09 00:02:24;;;;;;;5.47;2.97;;;1.80;93.20;;;;;;2080797;28;20071;-83
2021/01/09 00:03:25;;;;;;;6.00;3.28;;;1.70;93.10;;;;;;2072984;28;20147;-83
2021/01/09 00:04:25;;;;;;;5.55;3.20;;;1.70;93.20;;;;;;2081349;28;20033;-84
2021/01/09 00:05:26;;;;;;;4.10;2.63;;;1.70;93.20;;;;;;2089150;28;20037;-83
2021/01/09 00:06:35;;;;;;;6.40;3.33;;;1.70;93.20;;;;;;2066006;28;20492;-84
2021/01/09 00:07:36;;;;;;;6.22;3.47;;;1.70;93.20;;;;;;2074041;28;20524;-83
2021/01/09 00:08:37;;;;;;;7.55;3.40;;;1.70;93.20;;;;;;2081311;28;20454;-83
2021/01/09 00:09:38;;;;;;;5.68;3.00;;;1.70;93.20;;;;;;2088598;28;20530;-83
2021/01/09 00:10:38;;;;;;;6.10;3.28;;;1.70;93.20;;;;;;2087576;28;20127;-83
2021/01/09 00:11:39;;;;;;;5.13;3.10;;;1.60;93.20;;;;;;2089647;28;20090;-83
2021/01/09 00:12:40;;;;;;;6.43;3.42;;;1.60;93.20;;;;;;2093570;28;20033;-83
2021/01/09 00:13:40;;;;;;;5.53;3.10;;;1.70;93.20;;;;;;2100936;28;20047;-83
2021/01/09 00:14:41;;;;;;;5.38;3.10;;;1.70;93.20;;;;;;2097571;28;20486;-83
2021/01/09 00:15:42;;;;;;;5.68;3.35;;;1.70;93.30;;;;;;2089197;28;20273;-83
2021/01/09 00:16:47;;;;;;;5.80;3.05;;;1.60;93.20;;;;;;2072799;28;20034;-83
2021/01/09 00:17:47;;;;;;;6.65;3.70;;;1.60;93.20;;;;;;2089849;28;20029;-83
2021/01/09 00:18:48;;;;;;;5.97;3.50;;;1.60;93.20;;;;;;2085897;28;20028;-82
2021/01/09 00:19:49;;;;;;;7.43;3.72;;;1.60;93.20;;;;;;2089289;28;20032;-83
2021/01/09 00:20:50;;;;;;;7.07;3.60;;;1.70;93.20;;;;;;2081050;28;20029;-83
2021/01/09 00:21:52;;;;;;;6.00;3.35;;;1.70;93.30;;;;;;2088913;28;20031;-83
2021/01/09 00:22:53;;;;;;;5.72;3.10;;;1.70;93.30;;;;;;2092616;28;20403;-83
2021/01/09 00:23:53;;;;;;;5.13;2.83;;;1.70;93.30;;;;;;2072701;28;20061;-83
2021/01/09 00:24:54;;;;;;;6.20;3.42;;;1.70;93.20;;;;;;2064442;28;20031;-83
2021/01/09 00:25:54;;;;;;;6.97;3.42;;;1.70;93.20;;;;;;2080999;28;20038;-83
2021/01/09 00:26:55;;;;;;;5.50;3.28;;;1.70;93.30;;;;;;2077284;28;20079;-83
2021/01/09 00:27:56;;;;;;;5.32;3.25;;;1.70;93.20;;;;;;2070114;28;20117;-83
2021/01/09 00:28:56;;;;;;;5.65;3.13;;;1.70;93.20;;;;;;2072861;28;20095;-83
2021/01/09 00:29:57;;;;;;;5.30;2.90;;;1.70;93.20;;;;;;2088709;28;20049;-83
2021/01/09 00:30:58;;;;;;;5.47;3.03;;;1.70;93.20;;;;;;2079853;28;20376;-83
2021/01/09 00:31:58;;;;;;;5.38;3.10;;;1.70;93.20;;;;;;2088527;28;20514;-83
2021/01/09 00:32:59;;;;;;;6.50;3.45;;;1.70;93.20;;;;;;2080918;28;20129;-83
2021/01/09 00:33:59;;;;;;;6.60;3.22;;;1.70;93.20;;;;;;2072851;28;20135;-83
2021/01/09 00:35:00;;;;;;;5.72;3.55;;;1.70;93.20;;;;;;2080890;28;20479;-83
2021/01/09 00:36:02;;;;;;;5.25;2.97;;;1.70;93.20;;;;;;2073647;28;20068;-83
2021/01/09 00:37:03;;;;;;;6.68;3.20;;;1.70;93.20;;;;;;2079127;28;20032;-83
2021/01/09 00:38:04;;;;;;;5.35;3.17;;;1.70;93.20;;;;;;2081396;28;20033;-83
2021/01/09 00:39:05;;;;;;;6.50;3.15;;;1.70;93.50;;;;;;2073121;28;20028;-83
2021/01/09 00:40:06;;;;;;;5.82;3.00;;;1.70;93.20;;;;;;2075953;28;20503;-85
2021/01/09 00:41:06;;;;;;;5.68;3.40;;;1.70;93.20;;;;;;2098976;28;20036;-84
2021/01/09 00:42:10;;;;;;;4.68;2.92;;;1.70;93.20;;;;;;2098477;28;20024;-83
2021/01/09 00:43:11;;;;;;;4.78;2.72;;;1.70;93.20;;;;;;2073803;28;20033;-84
2021/01/09 00:44:11;;;;;;;5.72;3.15;;;1.70;93.20;;;;;;2075768;28;20029;-83
2021/01/09 00:45:12;;;;;;;4.25;2.42;;;1.70;93.30;;;;;;2082160;28;20372;-84
2021/01/09 00:46:16;;;;;;;5.55;3.05;;;1.60;93.20;;;;;;2098763;28;20044;-83
2021/01/09 00:47:17;;;;;;;4.88;2.88;;;1.70;93.30;;;;;;2090400;28;20081;-83
2021/01/09 00:48:17;;;;;;;5.47;2.80;;;1.60;93.50;;;;;;2091890;28;20028;-83
2021/01/09 00:49:18;;;;;;;4.90;3.03;;;1.60;93.30;;;;;;2091869;28;20032;-82
2021/01/09 00:50:19;;;;;;;5.82;3.13;;;1.60;93.20;;;;;;2099045;28;20013;-83
2021/01/09 00:51:19;;;;;;;4.65;2.70;;;1.60;93.20;;;;;;2083546;28;20033;-83
2021/01/09 00:52:20;;;;;;;6.32;3.17;;;1.50;93.50;;;;;;2069821;28;20023;-84
2021/01/09 00:53:20;;;;;;;5.13;3.00;;;1.50;93.30;;;;;;2074067;28;20029;-83
2021/01/09 00:54:21;;;;;;;5.40;3.00;;;1.50;93.30;;;;;;2082711;28;20406;-83
2021/01/09 00:55:22;;;;;;;6.10;3.55;;;1.50;93.30;;;;;;2091179;28;20021;-82
2021/01/09 00:56:25;;;;;;;5.07;2.95;;;1.50;93.60;;;;;;2097244;28;20028;-83
2021/01/09 00:57:26;;;;;;;4.85;2.78;;;1.50;93.30;;;;;;2092449;28;20005;-82
2021/01/09 00:58:27;;;;;;;4.75;2.55;;;1.50;93.40;;;;;;2099267;28;20040;-83
2021/01/09 00:59:28;;;;;;;4.85;2.67;;;1.40;93.30;;;;;;2100375;28;20041;-82
2021/01/09 01:00:28;;;;;;;5.85;2.95;;;1.40;93.30;;;;;;2106647;28;20028;-83
2021/01/09 01:01:29;;;;;;;5.63;2.83;;;1.40;93.30;;;;;;2095491;28;20029;-83
2021/01/09 01:02:29;;;;;;;5.03;2.92;;;1.40;93.40;;;;;;2072599;28;20077;-83
2021/01/09 01:03:30;;;;;;;5.72;3.30;;;1.30;93.40;;;;;;2072881;28;20404;-83
2021/01/09 01:04:31;;;;;;;5.65;3.08;;;1.30;93.40;;;;;;2081097;28;20461;-83
2021/01/09 01:05:32;;;;;;;5.25;2.90;;;1.30;93.40;;;;;;2064733;28;20484;-83
2021/01/09 01:06:32;;;;;;;5.60;3.20;;;1.30;93.40;;;;;;2060013;28;20034;-83
2021/01/09 01:07:35;;;;;;;5.53;3.03;;;1.20;93.40;;;;;;2073069;28;20540;-84
2021/01/09 01:08:35;;;;;;;5.18;2.70;;;1.30;93.50;;;;;;2092796;28;20029;-83
2021/01/09 01:09:36;;;;;;;5.60;3.28;;;1.30;93.50;;;;;;2081499;28;20503;-83
2021/01/09 01:10:37;;;;;;;5.10;3.30;;;1.20;93.40;;;;;;2084637;28;20463;-84
2021/01/09 01:11:39;;;;;;;4.93;2.97;;;1.30;93.50;;;;;;2073927;28;20026;-84
2021/01/09 01:12:41;;;;;;;5.35;3.13;;;1.20;93.50;;;;;;2073834;28;20022;-83
2021/01/09 01:13:41;;;;;;;6.22;3.08;;;1.20;93.40;;;;;;2085730;28;20026;-83
2021/01/09 01:14:42;;;;;;;5.68;3.20;;;1.20;93.40;;;;;;2082254;28;20444;-83
2021/01/09 01:15:43;;;;;;;5.22;2.78;;;1.20;93.40;;;;;;2074424;28;20038;-84
2021/01/09 01:16:48;;;;;;;6.20;3.00;;;1.20;93.40;;;;;;2086314;28;20021;-82
2021/01/09 01:17:49;;;;;;;5.00;2.97;;;1.20;93.40;;;;;;2109289;28;20032;-81
2021/01/09 01:18:50;;;;;;;6.00;3.40;;;1.20;93.40;;;;;;2099503;28;20016;-82
2021/01/09 01:19:51;;;;;;;5.35;3.20;;;1.10;93.40;;;;;;2075364;28;20007;-84
2021/01/09 01:20:51;;;;;;;6.70;3.55;;;1.20;93.50;;;;;;2075332;28;20038;-83
2021/01/09 01:21:52;;;;;;;5.30;3.05;;;1.20;93.50;;;;;;2066661;28;20025;-83
2021/01/09 01:22:52;;;;;;;5.82;3.53;;;1.20;93.40;;;;;;2068010;28;20057;-83
2021/01/09 01:23:53;;;;;;;5.88;3.53;;;1.10;93.40;;;;;;2080054;28;20072;-83
2021/01/09 01:24:54;;;;;;;6.05;3.80;;;1.20;93.40;;;;;;2064564;28;20531;-83
2021/01/09 01:25:54;;;;;;;6.25;3.72;;;1.10;93.40;;;;;;2072951;28;20396;-83
2021/01/09 01:26:55;;;;;;;6.07;3.50;;;1.10;93.40;;;;;;2089176;28;20025;-83
2021/01/09 01:27:56;;;;;;;6.00;3.55;;;1.20;93.50;;;;;;2097074;28;20529;-83
2021/01/09 01:28:59;;;;;;;6.50;3.60;;;1.20;93.50;;;;;;2088207;28;20041;-83
2021/01/09 01:30:00;;;;;;;5.88;3.17;;;1.20;93.40;;;;;;2076495;28;20050;-83
2021/01/09 01:31:01;;;;;;;5.80;3.30;;;1.20;93.40;;;;;;2087282;28;20411;-83
2021/01/09 01:32:01;;;;;;;5.65;3.03;;;1.20;93.40;;;;;;2097647;28;20044;-83
2021/01/09 01:33:03;;;;;;;6.00;3.60;;;1.20;93.40;;;;;;2088655;28;20037;-83
2021/01/09 01:34:04;;;;;;;5.72;3.45;;;1.20;93.40;;;;;;2085766;28;20578;-83
2021/01/09 01:35:05;;;;;;;5.85;3.13;;;1.10;93.40;;;;;;2093993;28;20044;-83
2021/01/09 01:36:09;;;;;;;6.65;3.63;;;1.10;93.40;;;;;;2091428;28;20033;-84
2021/01/09 01:37:10;;;;;;;5.45;3.03;;;1.10;93.40;;;;;;2079556;28;20025;-83
2021/01/09 01:38:11;;;;;;;5.38;2.90;;;1.10;93.40;;;;;;2072160;28;20075;-83
2021/01/09 01:39:11;;;;;;;5.85;3.70;;;1.10;93.50;;;;;;2080831;28;20026;-83
2021/01/09 01:40:12;;;;;;;5.50;3.05;;;1.10;93.50;;;;;;2082994;28;20547;-83
2021/01/09 01:41:13;;;;;;;6.50;3.30;;;1.10;93.50;;;;;;2097404;28;20028;-83
2021/01/09 01:42:14;;;;;;;6.57;3.75;;;1.10;93.50;;;;;;2079853;28;20057;-83
2021/01/09 01:43:15;;;;;;;6.82;3.78;;;1.10;93.50;;;;;;2080085;28;20692;-83
2021/01/09 01:44:16;;;;;;;6.57;3.40;;;1.10;93.50;;;;;;2085296;28;20040;-83
2021/01/09 01:45:16;;;;;;;6.93;3.45;;;1.10;93.50;;;;;;2072593;28;20399;-83
2021/01/09 01:46:18;;;;;;;6.47;3.45;;;1.10;93.50;;;;;;2056244;28;20847;-83
2021/01/09 01:47:21;;;;;;;7.13;4.10;;;1.10;93.50;;;;;;2066908;28;20026;-83
2021/01/09 01:48:21;;;;;;;6.80;3.90;;;1.20;93.50;;;;;;2080895;28;20419;-83
2021/01/09 01:49:22;;;;;;;6.57;3.60;;;1.10;93.40;;;;;;2090561;28;20021;-83
2021/01/09 01:50:23;;;;;;;6.60;3.97;;;1.10;93.40;;;;;;2080682;28;20032;-83
2021/01/09 01:51:23;;;;;;;7.10;3.70;;;1.20;93.40;;;;;;2075546;28;20029;-83
2021/01/09 01:52:25;;;;;;;5.93;3.70;;;1.20;93.40;;;;;;2080042;28;20380;-83
2021/01/09 01:53:27;;;;;;;6.10;3.80;;;1.10;93.40;;;;;;2080778;28;20025;-84
2021/01/09 01:54:28;;;;;;;5.97;3.88;;;1.10;93.40;;;;;;2088846;28;20025;-84
2021/01/09 01:55:31;;;;;;;6.85;3.80;;;1.10;93.40;;;;;;2080569;28;20076;-82
2021/01/09 01:56:32;;;;;;;6.13;3.47;;;1.10;93.40;;;;;;2097448;28;20470;-83
2021/01/09 01:57:33;;;;;;;6.35;3.55;;;1.10;93.70;;;;;;2088539;28;20021;-83
2021/01/09 01:58:34;;;;;;;6.55;3.67;;;1.20;93.50;;;;;;2072795;28;20030;-83
2021/01/09 01:59:41;;;;;;;5.85;3.50;;;1.10;93.40;;;;;;2088213;28;20407;-83
2021/01/09 02:00:46;;;;;;;6.07;3.47;;;1.20;93.40;;;;;;2087501;28;20035;-83
2021/01/09 02:01:49;;;;;;;7.07;3.63;;;1.10;93.40;;;;;;2079814;28;20028;-83
2021/01/09 02:02:52;;;;;;;7.13;3.80;;;1.10;93.40;;;;;;2069803;28;20017;-84
2021/01/09 02:03:53;;;;;;;7.07;3.65;;;1.20;93.40;;;;;;2088938;28;20029;-83
2021/01/09 02:05:01;;;;;;;6.22;3.63;;;1.10;93.40;;;;;;2072827;28;20033;-83
2021/01/09 02:06:11;;;;;;;5.80;3.40;;;1.10;93.40;;;;;;2081050;28;20109;-83
2021/01/09 02:07:18;;;;;;;5.22;3.25;;;1.20;93.40;;;;;;2090310;28;20028;-83
2021/01/09 02:08:22;;;;;;;5.65;3.30;;;1.10;93.40;;;;;;2091346;28;20021;-83
2021/01/09 02:09:27;;;;;;;5.75;3.45;;;1.20;93.40;;;;;;2090365;28;20056;-83
2021/01/09 02:10:27;;;;;;;6.35;3.92;;;1.10;93.40;;;;;;2087316;28;20483;-83
2021/01/09 02:11:52;;;;;;;6.22;3.50;;;1.10;93.40;;;;;;2065856;28;20030;-83
2021/01/09 02:13:00;;;;;;;5.50;3.35;;;1.20;93.40;;;;;;2074469;28;20517;-82
2021/01/09 02:14:02;;;;;;;6.45;3.65;;;1.20;93.40;;;;;;2086698;28;20430;-83
2021/01/09 02:15:04;;;;;;;6.32;3.78;;;1.10;93.40;;;;;;2085639;28;20061;-83
2021/01/09 02:16:05;;;;;;;7.43;4.18;;;1.10;93.30;;;;;;2090506;28;20422;-83
2021/01/09 02:17:08;;;;;;;6.50;3.60;;;1.10;93.40;;;;;;2096836;28;20091;-83
2021/01/09 02:18:12;;;;;;;7.57;4.30;;;1.10;93.40;;;;;;2097570;28;20409;-84
2021/01/09 02:19:14;;;;;;;7.80;4.00;;;1.10;93.40;;;;;;2089915;28;20036;-83
2021/01/09 02:20:15;;;;;;;7.57;3.70;;;1.10;93.40;;;;;;2073935;28;20170;-83
2021/01/09 02:21:24;;;;;;;7.35;4.18;;;1.10;93.40;;;;;;2081952;28;20116;-83
2021/01/09 02:22:26;;;;;;;6.50;3.75;;;1.10;93.40;;;;;;2097109;28;20017;-84
2021/01/09 02:23:27;;;;;;;7.18;3.75;;;1.10;93.50;;;;;;2089901;28;20530;-84
2021/01/09 02:24:27;;;;;;;9.23;4.70;;;1.10;93.40;;;;;;2098394;28;20035;-84
2021/01/09 02:25:28;;;;;;;7.95;4.22;;;1.10;93.50;;;;;;2090269;28;20402;-83
2021/01/09 02:26:29;;;;;;;8.52;5.22;;;1.10;93.50;;;;;;2073769;28;20041;-83
2021/01/09 02:27:31;;;;;;;8.48;4.63;;;1.10;93.50;;;;;;2073922;28;20048;-84
2021/01/09 02:28:31;;;;;;;8.18;4.88;;;1.20;93.50;;;;;;2078580;28;20033;-83
2021/01/09 02:29:36;;;;;;;8.15;4.85;;;1.20;93.50;;;;;;2089938;28;20049;-83
2021/01/09 02:30:40;;;;;;;7.85;4.32;;;1.10;93.40;;;;;;2076451;28;20419;-83
2021/01/09 02:32:14;;;;;;;7.63;4.40;;;1.10;93.40;;;;;;2074183;28;20026;-84
2021/01/09 02:33:17;;;;;;;6.90;3.92;;;1.20;93.40;;;;;;2080515;28;20037;-83
2021/01/09 02:34:20;;;;;;;8.00;4.43;;;1.10;93.40;;;;;;2082163;28;20075;-83
2021/01/09 02:35:21;;;;;;;6.13;3.63;;;1.10;93.40;;;;;;2080614;28;20039;-83
2021/01/09 02:36:23;;;;;;;8.27;4.55;;;1.10;93.40;;;;;;2089974;28;20033;-83
2021/01/09 02:37:24;;;;;;;7.82;4.38;;;1.10;93.50;;;;;;2095776;28;20029;-83
2021/01/09 02:38:25;;;;;;;7.65;4.50;;;1.10;93.50;;;;;;2081900;28;20037;-83
2021/01/09 02:39:26;;;;;;;8.15;4.30;;;1.10;93.50;;;;;;2081502;28;20433;-83
2021/01/09 02:40:26;;;;;;;8.50;4.10;;;1.10;93.50;;;;;;2089673;28;20037;-84
2021/01/09 02:41:28;;;;;;;7.13;4.00;;;1.10;93.50;;;;;;2090140;28;20056;-83
2021/01/09 02:42:31;;;;;;;7.75;4.47;;;1.10;93.50;;;;;;2076960;28;20083;-83
2021/01/09 02:43:31;;;;;;;7.47;4.45;;;1.10;93.50;;;;;;2082352;28;20032;-83
2021/01/09 02:44:34;;;;;;;8.45;4.72;;;1.10;93.50;;;;;;2089748;28;20036;-83
2021/01/09 02:45:35;;;;;;;8.63;4.55;;;1.10;93.50;;;;;;2086749;28;20108;-83
2021/01/09 02:46:39;;;;;;;9.10;4.70;;;1.10;93.50;;;;;;2081533;28;20396;-83
2021/01/09 02:47:40;;;;;;;8.35;4.63;;;1.10;93.50;;;;;;2081896;28;20079;-83
2021/01/09 02:48:40;;;;;;;8.20;4.65;;;1.10;93.70;;;;;;2081751;28;20034;-83
2021/01/09 02:49:41;;;;;;;8.27;4.40;;;1.10;93.50;;;;;;2090230;28;20104;-84
2021/01/09 02:50:41;;;;;;;7.97;4.47;;;1.10;93.50;;;;;;2085418;28;20032;-83
2021/01/09 02:51:42;;;;;;;9.02;4.78;;;1.10;93.50;;;;;;2076011;28;20041;-83
2021/01/09 02:52:43;;;;;;;7.22;4.45;;;1.10;93.50;;;;;;2073179;28;20522;-83
2021/01/09 02:53:44;;;;;;;8.80;4.82;;;1.10;93.50;;;;;;2077261;28;20492;-83
2021/01/09 02:54:44;;;;;;;6.85;3.92;;;1.10;93.50;;;;;;2073475;28;20041;-83
2021/01/09 02:55:45;;;;;;;9.13;4.60;;;1.00;93.50;;;;;;2085511;28;20414;-83
2021/01/09 02:56:45;;;;;;;7.25;4.40;;;1.00;93.50;;;;;;2073360;28;20522;-83
2021/01/09 02:57:46;;;;;;;6.65;3.75;;;1.10;93.60;;;;;;2082881;28;20091;-83
2021/01/09 02:58:46;;;;;;;8.32;4.03;;;1.10;93.60;;;;;;2091528;28;20508;-83
2021/01/09 02:59:47;;;;;;;7.47;4.07;;;1.10;93.60;;;;;;2081186;28;20053;-83
2021/01/09 03:00:48;;;;;;;7.97;4.40;;;1.10;93.60;;;;;;2081397;28;20026;-83
2021/01/09 03:01:49;;;;;;;7.47;3.97;;;1.00;93.60;;;;;;2078620;28;20506;-83
2021/01/09 03:02:50;;;;;;;8.20;4.20;;;1.00;93.60;;;;;;2073576;28;20068;-82
2021/01/09 03:03:50;;;;;;;7.18;4.00;;;1.10;93.60;;;;;;2081700;28;20715;-83
2021/01/09 03:04:51;;;;;;;6.57;4.13;;;1.10;93.60;;;;;;2073387;28;20492;-83
2021/01/09 03:05:51;;;;;;;9.65;4.68;;;1.10;93.60;;;;;;2075133;28;20041;-83
2021/01/09 03:06:52;;;;;;;7.30;4.10;;;1.10;93.60;;;;;;2081222;28;20488;-83
2021/01/09 03:07:53;;;;;;;9.45;3.97;;;1.10;93.60;;;;;;2073668;28;20049;-83
2021/01/09 03:08:53;;;;;;;7.88;3.95;;;1.10;93.60;;;;;;2066332;28;20370;-82
2021/01/09 03:09:54;;;;;;;8.05;4.30;;;1.10;93.60;;;;;;2075831;28;20040;-83
2021/01/09 03:10:55;;;;;;;7.90;4.28;;;1.10;93.60;;;;;;2081721;28;20064;-83
2021/01/09 03:11:55;;;;;;;9.05;4.55;;;1.10;93.60;;;;;;2066707;28;20038;-83
2021/01/09 03:12:56;;;;;;;8.38;3.88;;;1.00;93.60;;;;;;2072445;28;20432;-82
2021/01/09 03:13:56;;;;;;;7.78;4.03;;;1.10;93.60;;;;;;2097321;28;20024;-83
2021/01/09 03:14:57;;;;;;;8.32;4.30;;;1.00;93.60;;;;;;2081100;28;20037;-83
2021/01/09 03:15:59;;;;;;;7.78;4.03;;;1.00;93.50;;;;;;2056592;28;20359;-83
2021/01/09 03:17:00;;;;;;;6.63;3.67;;;1.00;93.60;;;;;;2073298;28;20073;-83
2021/01/09 03:18:00;;;;;;;7.93;3.75;;;1.00;93.60;;;;;;2082180;28;20021;-83
2021/01/09 03:19:01;;;;;;;7.05;4.05;;;1.00;93.60;;;;;;2082430;28;20422;-83
2021/01/09 03:20:02;;;;;;;8.38;4.18;;;1.00;93.60;;;;;;2097432;28;20028;-83
2021/01/09 03:21:04;;;;;;;7.22;4.05;;;1.00;93.60;;;;;;2089097;28;20033;-83
2021/01/09 03:22:04;;;;;;;8.18;4.38;;;1.00;93.60;;;;;;2089841;28;20021;-83
2021/01/09 03:23:05;;;;;;;7.38;4.30;;;1.00;93.60;;;;;;2091506;28;20090;-83
2021/01/09 03:24:06;;;;;;;6.82;3.92;;;1.00;93.60;;;;;;2073379;28;20028;-83
2021/01/09 03:25:07;;;;;;;6.55;3.88;;;1.00;93.60;;;;;;2075661;28;20420;-83
2021/01/09 03:26:07;;;;;;;7.45;4.10;;;1.00;93.60;;;;;;2077810;28;20034;-82
2021/01/09 03:27:08;;;;;;;7.20;4.18;;;1.00;93.60;;;;;;2081539;28;20105;-82
2021/01/09 03:28:09;;;;;;;6.82;3.80;;;1.00;93.60;;;;;;2073737;28;20034;-83
2021/01/09 03:29:09;;;;;;;7.18;4.13;;;1.00;93.60;;;;;;2081291;28;20107;-82
2021/01/09 03:30:10;;;;;;;7.28;4.00;;;1.00;93.60;;;;;;2101365;28;20496;-82
2021/01/09 03:31:11;;;;;;;6.47;3.50;;;0.90;93.60;;;;;;2089458;28;20071;-82
2021/01/09 03:32:11;;;;;;;7.22;3.67;;;1.00;93.60;;;;;;2082611;28;20036;-82
2021/01/09 03:33:12;;;;;;;6.45;3.65;;;0.90;93.60;;;;;;2073286;28;20125;-83
2021/01/09 03:34:13;;;;;;;8.25;4.15;;;0.90;93.90;;;;;;2087103;28;20036;-82
2021/01/09 03:35:14;;;;;;;7.57;3.83;;;0.90;93.60;;;;;;2088244;28;20095;-82
2021/01/09 03:36:15;;;;;;;8.35;3.88;;;0.90;93.70;;;;;;2075639;28;20024;-82
2021/01/09 03:37:15;;;;;;;6.93;3.83;;;0.90;93.70;;;;;;2073499;28;20045;-82
2021/01/09 03:38:16;;;;;;;7.53;4.35;;;0.90;93.70;;;;;;2091026;28;20024;-82
2021/01/09 03:39:16;;;;;;;8.10;4.30;;;0.90;93.70;;;;;;2089767;28;20490;-82
2021/01/09 03:40:17;;;;;;;7.53;3.95;;;0.90;93.70;;;;;;2088746;28;20075;-82
2021/01/09 03:41:18;;;;;;;6.50;3.63;;;0.80;93.60;;;;;;2089040;28;20033;-82
2021/01/09 03:42:18;;;;;;;7.88;4.15;;;0.90;93.70;;;;;;2097905;28;20442;-82
2021/01/09 03:43:19;;;;;;;6.80;4.05;;;0.80;93.60;;;;;;2081377;28;20029;-82
2021/01/09 03:44:19;;;;;;;6.97;3.63;;;0.80;93.60;;;;;;2079723;28;20035;-82
2021/01/09 03:45:20;;;;;;;7.88;4.28;;;0.80;93.70;;;;;;2088041;28;20117;-83
2021/01/09 03:46:21;;;;;;;7.07;3.72;;;0.80;93.70;;;;;;2088868;28;20029;-82
2021/01/09 03:47:21;;;;;;;6.90;3.70;;;0.80;93.70;;;;;;2087643;28;20056;-82
2021/01/09 03:48:22;;;;;;;7.43;4.07;;;0.80;93.70;;;;;;2087183;28;20507;-82
2021/01/09 03:49:22;;;;;;;8.15;4.00;;;0.80;93.70;;;;;;2076046;28;20029;-82
2021/01/09 03:50:23;;;;;;;7.65;4.32;;;0.80;93.70;;;;;;2081262;28;20492;-82
2021/01/09 03:51:24;;;;;;;7.55;3.90;;;0.80;93.70;;;;;;2089808;28;20033;-82
2021/01/09 03:52:25;;;;;;;6.85;3.63;;;0.70;93.60;;;;;;2081645;28;20447;-82
2021/01/09 03:53:26;;;;;;;6.35;3.88;;;0.70;93.70;;;;;;2085262;28;20033;-82
2021/01/09 03:54:27;;;;;;;7.70;3.90;;;0.70;93.60;;;;;;2081235;28;20025;-82
2021/01/09 03:55:27;;;;;;;6.93;3.70;;;0.70;93.70;;;;;;2081332;28;20029;-84
2021/01/09 03:56:28;;;;;;;6.60;3.85;;;0.70;93.70;;;;;;2089057;28;20029;-84
2021/01/09 03:57:29;;;;;;;6.28;3.75;;;0.70;93.70;;;;;;2071188;28;20387;-83
2021/01/09 03:58:29;;;;;;;7.30;4.10;;;0.60;93.60;;;;;;2073027;28;20455;-83
2021/01/09 03:59:30;;;;;;;8.40;4.28;;;0.70;93.70;;;;;;2073242;28;20379;-84
2021/01/09 04:00:31;;;;;;;7.70;4.20;;;0.60;93.70;;;;;;2081974;28;20095;-84
2021/01/09 04:01:31;;;;;;;6.90;3.85;;;0.60;93.70;;;;;;2089581;28;20025;-84
2021/01/09 04:02:32;;;;;;;8.85;4.30;;;0.60;93.70;;;;;;2089459;28;20032;-82
2021/01/09 04:03:32;;;;;;;7.40;4.05;;;0.60;93.70;;;;;;2089157;28;20029;-83
2021/01/09 04:04:33;;;;;;;6.85;3.85;;;0.60;93.70;;;;;;2088777;28;20115;-83
2021/01/09 04:05:34;;;;;;;9.25;4.30;;;0.60;93.70;;;;;;2080852;28;20022;-82
2021/01/09 04:06:35;;;;;;;8.07;4.10;;;0.60;93.70;;;;;;2097604;28;20028;-83
2021/01/09 04:07:35;;;;;;;7.70;4.20;;;0.60;93.70;;;;;;2072118;28;20120;-82
2021/01/09 04:08:36;;;;;;;7.40;4.28;;;0.50;93.70;;;;;;2072714;28;20033;-82
2021/01/09 04:09:36;;;;;;;8.07;4.45;;;0.60;93.70;;;;;;2077769;28;20114;-82
2021/01/09 04:10:37;;;;;;;7.28;4.45;;;0.60;93.70;;;;;;2064843;28;20117;-83
2021/01/09 04:11:38;;;;;;;8.35;4.53;;;0.60;93.70;;;;;;2089107;28;20035;-83
2021/01/09 04:12:38;;;;;;;7.80;3.85;;;0.60;93.70;;;;;;2089363;28;20078;-83
2021/01/09 04:13:39;;;;;;;7.95;4.25;;;0.60;93.70;;;;;;2081080;28;20028;-82
2021/01/09 04:14:41;;;;;;;7.85;3.97;;;0.60;93.70;;;;;;2089229;28;20124;-82
2021/01/09 04:15:41;;;;;;;8.48;4.20;;;0.60;93.70;;;;;;2072983;28;20013;-83
2021/01/09 04:16:42;;;;;;;7.65;3.85;;;0.60;93.70;;;;;;2089595;28;20118;-83
2021/01/09 04:17:43;;;;;;;7.00;3.90;;;0.50;93.60;;;;;;2089032;28;20033;-83
2021/01/09 04:18:43;;;;;;;8.30;4.03;;;0.60;93.70;;;;;;2078343;28;20026;-82
2021/01/09 04:19:44;;;;;;;6.47;3.65;;;0.60;93.70;;;;;;2072721;28;20037;-83
2021/01/09 04:20:45;;;;;;;9.50;4.50;;;0.50;93.60;;;;;;2080609;28;20447;-83
2021/01/09 04:21:53;;;;;;;7.85;3.90;;;0.50;93.70;;;;;;2080893;28;20041;-82
2021/01/09 04:22:53;;;;;;;11.82;4.00;;;0.50;93.70;;;;;;2075029;28;20073;-83
2021/01/09 04:23:54;;;;;;;8.07;4.00;;;0.50;93.60;;;;;;2078323;28;20029;-82
2021/01/09 04:24:55;;;;;;;7.80;4.25;;;0.50;93.70;;;;;;2077374;28;20041;-82
2021/01/09 04:25:55;;;;;;;8.23;4.10;;;0.50;93.70;;;;;;2071753;28;20030;-83
2021/01/09 04:26:58;;;;;;;7.30;3.80;;;0.50;93.70;;;;;;2072779;28;20025;-83
2021/01/09 04:27:59;;;;;;;9.48;4.40;;;0.40;93.70;;;;;;2088735;28;20453;-83
2021/01/09 04:28:59;;;;;;;7.13;4.00;;;0.50;93.70;;;;;;2097470;28;20033;-82
2021/01/09 04:30:00;;;;;;;7.47;4.13;;;0.50;93.70;;;;;;2086736;28;20059;-83
2021/01/09 04:31:01;;;;;;;9.27;4.30;;;0.40;93.70;;;;;;2073236;28;20050;-83
2021/01/09 04:32:01;;;;;;;7.57;4.20;;;0.50;93.70;;;;;;2081110;28;20159;-83
2021/01/09 04:33:02;;;;;;;7.20;3.88;;;0.50;93.70;;;;;;2080994;28;20040;-83
2021/01/09 04:34:03;;;;;;;7.15;4.05;;;0.50;93.70;;;;;;2089337;28;20028;-83
2021/01/09 04:35:05;;;;;;;8.25;4.22;;;0.50;93.70;;;;;;2085605;28;20033;-83
2021/01/09 04:36:06;;;;;;;8.20;4.22;;;0.50;93.70;;;;;;2073243;28;20057;-83
2021/01/09 04:37:07;;;;;;;8.02;4.00;;;0.50;93.70;;;;;;2077630;28;20037;-83
2021/01/09 04:38:08;;;;;;;6.65;3.58;;;0.50;93.70;;;;;;2088661;28;20029;-83
2021/01/09 04:39:08;;;;;;;8.25;4.30;;;0.50;93.70;;;;;;2072791;28;20030;-82
2021/01/09 04:40:09;;;;;;;6.28;3.90;;;0.50;93.70;;;;;;2072727;28;20112;-83
2021/01/09 04:41:10;;;;;;;8.00;4.20;;;0.50;93.70;;;;;;2093144;28;20025;-83
2021/01/09 04:42:11;;;;;;;7.15;4.07;;;0.50;93.70;;;;;;2083238;28;20438;-83
2021/01/09 04:43:12;;;;;;;6.57;3.70;;;0.50;93.70;;;;;;2081061;28;20037;-83
2021/01/09 04:44:13;;;;;;;8.00;4.10;;;0.50;93.90;;;;;;2072853;28;20430;-83
2021/01/09 04:45:14;;;;;;;7.22;3.75;;;0.50;93.70;;;;;;2072493;28;20038;-84
2021/01/09 04:46:18;;;;;;;6.75;3.75;;;0.50;93.70;;;;;;2080938;28;20494;-83
2021/01/09 04:47:19;;;;;;;6.50;3.67;;;0.50;93.70;;;;;;2082727;28;20036;-83
2021/01/09 04:48:20;;;;;;;6.57;3.63;;;0.50;93.60;;;;;;2087027;28;20024;-82
2021/01/09 04:49:23;;;;;;;6.57;3.55;;;0.60;93.70;;;;;;2085575;28;20024;-82
2021/01/09 04:50:23;;;;;;;5.85;3.42;;;0.60;93.70;;;;;;2072633;28;20029;-83
2021/01/09 04:51:26;;;;;;;6.25;3.83;;;0.50;93.60;;;;;;2081224;28;20443;-83
2021/01/09 04:52:28;;;;;;;6.30;3.50;;;0.50;93.60;;;;;;2091268;28;20032;-82
2021/01/09 04:53:30;;;;;;;6.72;3.88;;;0.50;93.60;;;;;;2080766;28;20025;-83
2021/01/09 04:54:32;;;;;;;7.63;3.80;;;0.50;93.60;;;;;;2082291;28;20030;-82
2021/01/09 04:55:34;;;;;;;6.03;3.22;;;0.50;93.60;;;;;;2079819;28;20091;-82
2021/01/09 04:56:35;;;;;;;7.00;3.63;;;0.50;93.60;;;;;;2080814;28;20021;-82
2021/01/09 04:57:36;;;;;;;6.45;3.63;;;0.50;93.70;;;;;;2090597;28;20055;-83
2021/01/09 04:58:38;;;;;;;6.75;3.88;;;0.50;93.70;;;;;;2086127;28;20119;-82
2021/01/09 04:59:39;;;;;;;5.97;3.63;;;0.50;93.70;;;;;;2077137;28;20022;-83
2021/01/09 05:00:41;;;;;;;6.70;3.75;;;0.50;93.70;;;;;;2070583;28;20435;-83
2021/01/09 05:01:43;;;;;;;6.28;3.45;;;0.50;93.70;;;;;;2082022;28;20053;-82
2021/01/09 05:02:44;;;;;;;6.63;3.70;;;0.50;93.70;;;;;;2100571;28;20025;-82
2021/01/09 05:03:48;;;;;;;6.03;3.53;;;0.50;93.70;;;;;;2091665;28;20025;-82
2021/01/09 05:04:48;;;;;;;6.13;3.60;;;0.50;93.60;;;;;;2091964;28;20029;-80
2021/01/09 05:05:49;;;;;;;6.82;3.72;;;0.50;93.60;;;;;;2091379;28;20021;-81
2021/01/09 05:06:50;;;;;;;6.38;3.67;;;0.50;93.60;;;;;;2094642;28;20017;-80
2021/01/09 05:07:51;;;;;;;6.20;3.60;;;0.50;93.70;;;;;;2106129;28;20117;-82
2021/01/09 05:08:51;;;;;;;6.40;3.53;;;0.50;93.60;;;;;;2100779;28;20021;-82
2021/01/09 05:10:00;;;;;;;6.90;3.45;;;0.50;93.60;;;;;;2083427;28;20025;-83
2021/01/09 05:11:03;;;;;;;6.57;3.60;;;0.50;93.60;;;;;;2082768;28;20030;-82
2021/01/09 05:12:05;;;;;;;6.32;3.42;;;0.50;93.60;;;;;;2085469;28;20013;-82
2021/01/09 05:13:05;;;;;;;7.35;3.80;;;0.50;93.90;;;;;;2093627;28;20021;-82
2021/01/09 05:14:07;;;;;;;6.90;3.95;;;0.50;93.60;;;;;;2099843;28;20033;-82
2021/01/09 05:15:08;;;;;;;5.78;3.20;;;0.50;93.60;;;;;;2099910;28;20101;-80
2021/01/09 05:16:10;;;;;;;6.00;3.40;;;0.50;93.60;;;;;;2091105;28;20014;-82
2021/01/09 05:17:11;;;;;;;6.93;3.78;;;0.50;93.60;;;;;;2100490;28;20147;-81
2021/01/09 05:18:12;;;;;;;5.55;3.17;;;0.50;93.60;;;;;;2099834;28;20020;-82
2021/01/09 05:19:12;;;;;;;6.25;3.28;;;0.50;93.60;;;;;;2072536;28;20515;-82
2021/01/09 05:20:13;;;;;;;6.38;3.45;;;0.50;93.60;;;;;;2073209;28;20026;-82
2021/01/09 05:21:15;;;;;;;5.70;3.40;;;0.50;93.60;;;;;;2072399;28;20492;-82
2021/01/09 05:22:16;;;;;;;5.57;3.20;;;0.50;93.60;;;;;;2081436;28;20021;-82
2021/01/09 05:23:17;;;;;;;5.78;3.28;;;0.50;93.60;;;;;;2081067;28;20021;-82
2021/01/09 05:24:18;;;;;;;5.28;2.90;;;0.50;93.60;;;;;;2072839;28;20538;-82